Time;durP1;ratioP1;P1;durP2;ratioP2;P2;SDS_P1;SDS_P2;PMS_P1;PMS_P2;Temp;Humidity;BMP_temperature;BMP_pressure;BME280_temperature;BME280_humidity;BME280_pressure;Samples;Min_cycle;Max_cycle;Signal;HPM_P1;HPM_P2
2023/03/15 00:00:09;;;;;;;0.00;0.00;;;8.20;99.90;;;;;;4996909;28;20333;-75
2023/03/15 00:02:40;;;;;;;0.00;0.00;;;8.20;99.90;;;;;;4985329;28;20721;-76
2023/03/15 00:05:11;;;;;;;0.00;0.00;;;8.20;99.90;;;;;;4996441;28;20022;-75
2023/03/15 00:07:38;;;;;;;0.00;0.00;;;8.20;99.90;;;;;;4984117;28;20019;-75
2023/03/15 00:10:05;;;;;;;;;;;8.30;99.90;;;;;;4990273;28;20018;-75
2023/03/15 00:12:33;;;;;;;0.00;0.00;;;8.30;99.90;;;;;;4994180;28;20770;-75
2023/03/15 00:14:59;;;;;;;0.00;0.00;;;8.30;99.90;;;;;;4971087;28;20144;-75
2023/03/15 00:17:36;;;;;;;0.00;0.00;;;8.30;99.90;;;;;;4995441;28;20894;-75
2023/03/15 00:20:05;;;;;;;0.00;0.00;;;8.40;99.90;;;;;;4997619;28;20022;-75
2023/03/15 00:22:43;;;;;;;0.00;0.00;;;8.40;99.90;;;;;;4987552;28;20026;-75
2023/03/15 00:25:09;;;;;;;0.00;0.00;;;8.40;99.90;;;;;;4994421;28;20030;-76
2023/03/15 00:27:34;;;;;;;0.00;0.00;;;8.40;99.90;;;;;;4977923;28;20050;-76
2023/03/15 00:30:07;;;;;;;0.00;0.00;;;8.40;99.90;;;;;;4993553;28;20018;-75
2023/03/15 00:32:32;;;;;;;0.00;0.00;;;8.40;99.90;;;;;;4995708;28;20025;-75
2023/03/15 00:34:58;;;;;;;0.00;0.00;;;8.50;99.90;;;;;;4967251;28;20735;-75
2023/03/15 00:37:24;;;;;;;0.00;0.00;;;8.50;99.90;;;;;;4995063;28;20020;-76
2023/03/15 00:39:55;;;;;;;0.00;0.00;;;8.50;99.90;;;;;;4984684;28;20029;-76
2023/03/15 00:42:26;;;;;;;0.00;0.00;;;8.50;99.90;;;;;;4997731;28;20018;-75
2023/03/15 00:44:56;;;;;;;0.00;0.00;;;8.50;99.90;;;;;;4971051;28;20109;-75
2023/03/15 00:47:21;;;;;;;0.00;0.00;;;8.50;99.90;;;;;;4976871;28;20475;-75
2023/03/15 00:49:47;;;;;;;0.00;0.00;;;8.60;99.90;;;;;;4975471;28;20034;-76
2023/03/15 00:52:13;;;;;;;0.00;0.00;;;8.50;99.90;;;;;;4974790;28;20022;-76
2023/03/15 00:54:40;;;;;;;0.00;0.00;;;8.50;99.90;;;;;;4978637;28;20026;-75
2023/03/15 00:57:08;;;;;;;0.00;0.00;;;8.50;99.90;;;;;;4970370;28;20030;-75
2023/03/15 00:59:35;;;;;;;0.00;0.00;;;8.50;99.90;;;;;;4996620;28;20032;-77
2023/03/15 01:02:06;;;;;;;0.00;0.00;;;8.50;99.90;;;;;;4985588;28;20034;-75
2023/03/15 01:04:32;;;;;;;1.27;0.88;;;8.50;99.90;;;;;;4976353;28;20057;-76
2023/03/15 01:07:05;;;;;;;0.00;0.00;;;8.50;99.90;;;;;;4968993;28;21000;-76
2023/03/15 01:09:31;;;;;;;0.00;0.00;;;8.50;99.90;;;;;;4974329;28;20104;-75
2023/03/15 01:12:00;;;;;;;0.00;0.00;;;8.50;99.90;;;;;;4967424;28;20451;-76
2023/03/15 01:14:39;;;;;;;0.00;0.00;;;8.50;99.90;;;;;;4993094;28;20022;-75
2023/03/15 01:17:04;;;;;;;0.00;0.00;;;8.40;99.90;;;;;;4966683;28;20030;-76
2023/03/15 01:19:30;;;;;;;0.00;0.00;;;8.50;99.90;;;;;;4995924;28;20564;-75
2023/03/15 01:22:07;;;;;;;0.00;0.00;;;8.50;99.90;;;;;;4991141;28;20030;-75
2023/03/15 01:24:36;;;;;;;0.00;0.00;;;8.50;99.90;;;;;;4974790;28;20107;-76
2023/03/15 01:27:04;;;;;;;0.00;0.00;;;8.40;99.90;;;;;;4994700;28;20072;-76
2023/03/15 01:29:31;;;;;;;0.00;0.00;;;8.30;99.90;;;;;;4993977;28;20019;-76
2023/03/15 01:31:58;;;;;;;;;;;8.30;99.90;;;;;;4991250;28;20076;-76
2023/03/15 01:34:24;;;;;;;0.00;0.00;;;8.10;99.90;;;;;;4997143;28;19913;-76
2023/03/15 01:36:52;;;;;;;0.00;0.00;;;7.80;99.90;;;;;;4989144;28;20108;-75
2023/03/15 01:39:18;;;;;;;0.00;0.00;;;7.60;99.90;;;;;;4971239;28;20034;-76
2023/03/15 01:41:44;;;;;;;0.00;0.00;;;7.30;99.90;;;;;;4985719;28;20033;-75
2023/03/15 01:44:17;;;;;;;0.00;0.00;;;7.40;99.90;;;;;;4975962;28;20029;-75
2023/03/15 01:46:43;;;;;;;0.00;0.00;;;7.30;99.90;;;;;;4984190;28;20018;-75
2023/03/15 01:49:31;;;;;;;0.10;0.10;;;7.00;99.90;;;;;;4994631;28;20493;-75
2023/03/15 01:52:17;;;;;;;0.00;0.00;;;7.00;99.90;;;;;;4995404;28;20761;-76
2023/03/15 01:55:06;;;;;;;0.00;0.00;;;6.90;99.90;;;;;;4989492;28;20010;-76
2023/03/15 01:57:56;;;;;;;0.00;0.00;;;6.90;99.90;;;;;;4976141;28;20038;-76
2023/03/15 02:00:22;;;;;;;0.00;0.00;;;7.00;99.90;;;;;;4993520;28;20022;-75
2023/03/15 02:02:58;;;;;;;0.00;0.00;;;6.90;99.90;;;;;;4987062;28;20025;-76
2023/03/15 02:05:28;;;;;;;0.00;0.00;;;6.70;99.90;;;;;;4975018;28;20029;-76
2023/03/15 02:07:55;;;;;;;0.00;0.00;;;6.70;99.90;;;;;;4990742;28;20053;-76
2023/03/15 02:10:36;;;;;;;0.00;0.00;;;6.70;99.90;;;;;;4977513;28;20014;-76
2023/03/15 02:13:05;;;;;;;0.00;0.00;;;6.60;99.90;;;;;;4969424;28;20030;-75
2023/03/15 02:15:31;;;;;;;0.00;0.00;;;6.60;99.90;;;;;;4971266;28;20109;-76
2023/03/15 02:17:57;;;;;;;0.00;0.00;;;6.50;99.90;;;;;;4980844;28;20116;-75
2023/03/15 02:20:48;;;;;;;0.00;0.00;;;6.40;99.90;;;;;;4993406;28;20030;-76
2023/03/15 02:23:18;;;;;;;0.00;0.00;;;6.30;99.90;;;;;;4994636;28;20030;-75
2023/03/15 02:26:05;;;;;;;0.00;0.00;;;6.30;99.90;;;;;;4976674;28;20113;-75
2023/03/15 02:28:35;;;;;;;0.20;0.20;;;6.20;99.90;;;;;;4970216;28;20085;-75
2023/03/15 02:31:03;;;;;;;0.00;0.00;;;6.20;99.90;;;;;;4989892;28;20272;-76
2023/03/15 02:33:40;;;;;;;0.00;0.00;;;6.10;99.90;;;;;;4987685;28;20048;-76
2023/03/15 02:36:23;;;;;;;0.00;0.00;;;6.10;99.90;;;;;;4990390;28;20071;-75
2023/03/15 02:38:51;;;;;;;0.00;0.00;;;6.00;99.90;;;;;;4989108;28;20022;-75
2023/03/15 02:41:29;;;;;;;0.00;0.00;;;6.00;99.90;;;;;;4992252;28;20023;-76
2023/03/15 02:44:00;;;;;;;0.00;0.00;;;5.90;99.90;;;;;;4972306;28;20026;-75
2023/03/15 02:46:33;;;;;;;0.00;0.00;;;5.80;99.90;;;;;;4971236;28;20026;-76
2023/03/15 02:49:02;;;;;;;0.00;0.00;;;5.80;99.90;;;;;;4975909;28;20030;-75
2023/03/15 02:51:38;;;;;;;0.00;0.00;;;5.70;99.90;;;;;;4970282;28;20026;-76
2023/03/15 02:54:05;;;;;;;0.00;0.00;;;5.80;99.90;;;;;;4999202;28;20022;-76
2023/03/15 02:56:32;;;;;;;0.00;0.00;;;5.80;99.90;;;;;;4987556;28;20038;-76
2023/03/15 02:59:04;;;;;;;0.00;0.00;;;5.80;99.90;;;;;;4968620;28;20038;-76
2023/03/15 03:01:40;;;;;;;0.00;0.00;;;5.80;99.90;;;;;;4974392;28;20691;-75
2023/03/15 03:04:06;;;;;;;0.00;0.00;;;5.80;99.90;;;;;;4978534;28;20022;-75
2023/03/15 03:06:32;;;;;;;0.00;0.00;;;5.70;99.90;;;;;;4985004;28;20034;-76
2023/03/15 03:09:01;;;;;;;0.00;0.00;;;5.70;99.90;;;;;;4986933;28;20026;-76
2023/03/15 03:11:27;;;;;;;0.00;0.00;;;5.80;99.90;;;;;;4971147;28;20080;-76
2023/03/15 03:13:56;;;;;;;0.00;0.00;;;5.80;99.90;;;;;;4971603;28;20022;-76
2023/03/15 03:16:24;;;;;;;0.00;0.00;;;5.80;99.90;;;;;;5000001;28;20834;-76
2023/03/15 03:18:50;;;;;;;0.00;0.00;;;5.90;99.90;;;;;;4986133;28;20908;-75
2023/03/15 03:21:17;;;;;;;0.00;0.00;;;5.90;99.90;;;;;;4992033;28;20025;-75
2023/03/15 03:23:45;;;;;;;;;;;5.90;99.90;;;;;;4990477;28;20033;-75
2023/03/15 03:26:17;;;;;;;0.00;0.00;;;5.80;99.90;;;;;;4967675;28;19996;-75
2023/03/15 03:28:46;;;;;;;0.00;0.00;;;5.80;99.90;;;;;;4985610;28;20018;-75
2023/03/15 03:31:17;;;;;;;0.00;0.00;;;5.80;99.90;;;;;;4987110;28;20756;-75
2023/03/15 03:33:43;;;;;;;0.00;0.00;;;5.70;99.90;;;;;;4965933;28;20589;-75
2023/03/15 03:36:15;;;;;;;0.00;0.00;;;5.60;99.90;;;;;;4972167;28;20034;-76
2023/03/15 03:38:43;;;;;;;0.00;0.00;;;5.50;99.90;;;;;;4984816;28;20038;-76
2023/03/15 03:41:14;;;;;;;0.00;0.00;;;5.50;99.90;;;;;;4968709;28;20811;-76
2023/03/15 03:43:39;;;;;;;0.00;0.00;;;5.60;99.90;;;;;;4986577;28;20084;-75
2023/03/15 03:46:06;;;;;;;0.00;0.00;;;5.60;99.90;;;;;;4992787;28;20406;-76
2023/03/15 03:48:35;;;;;;;0.00;0.00;;;5.60;99.90;;;;;;4976218;28;20500;-76
2023/03/15 03:51:01;;;;;;;0.00;0.00;;;5.60;99.90;;;;;;4980018;28;20034;-75
2023/03/15 03:53:26;;;;;;;0.00;0.00;;;5.60;99.90;;;;;;4972401;28;20068;-75
2023/03/15 03:55:56;;;;;;;0.00;0.00;;;5.60;99.90;;;;;;4972925;28;20028;-75
2023/03/15 03:58:22;;;;;;;0.00;0.00;;;5.50;99.90;;;;;;4978127;28;20026;-75
2023/03/15 04:00:48;;;;;;;0.00;0.00;;;5.60;99.90;;;;;;4976367;28;20080;-76
2023/03/15 04:03:26;;;;;;;0.00;0.00;;;5.40;99.90;;;;;;4999766;28;20423;-75
2023/03/15 04:05:55;;;;;;;0.00;0.00;;;5.20;99.90;;;;;;4973773;28;20286;-76
2023/03/15 04:08:28;;;;;;;0.00;0.00;;;5.20;99.90;;;;;;4995861;28;20022;-75
2023/03/15 04:10:57;;;;;;;0.00;0.00;;;5.20;99.90;;;;;;4977391;28;20022;-76
2023/03/15 04:13:25;;;;;;;0.00;0.00;;;5.10;99.90;;;;;;4978221;28;20110;-75
2023/03/15 04:15:56;;;;;;;0.00;0.00;;;5.20;99.90;;;;;;4975313;28;20042;-75
2023/03/15 04:18:22;;;;;;;0.00;0.00;;;5.20;99.90;;;;;;4996671;28;20791;-75
2023/03/15 04:20:53;;;;;;;0.00;0.00;;;5.10;99.90;;;;;;4992242;28;20060;-76
2023/03/15 04:23:22;;;;;;;0.00;0.00;;;5.10;99.90;;;;;;4993799;28;20056;-76
2023/03/15 04:25:49;;;;;;;0.00;0.00;;;5.00;99.90;;;;;;4997617;28;20026;-76
2023/03/15 04:28:15;;;;;;;0.00;0.00;;;5.00;99.90;;;;;;4995353;28;20026;-75
2023/03/15 04:30:43;;;;;;;0.00;0.00;;;5.00;99.90;;;;;;4977445;28;20031;-75
2023/03/15 04:33:10;;;;;;;0.00;0.00;;;5.00;99.90;;;;;;4973450;28;20026;-75
2023/03/15 04:35:38;;;;;;;0.00;0.00;;;5.00;99.90;;;;;;5001170;28;20586;-76
2023/03/15 04:38:05;;;;;;;0.00;0.00;;;5.10;99.90;;;;;;4976853;28;20538;-76
2023/03/15 04:40:33;;;;;;;0.00;0.00;;;5.00;99.90;;;;;;4980325;28;20499;-75
2023/03/15 04:43:02;;;;;;;0.00;0.00;;;5.00;99.90;;;;;;4973991;28;20038;-77
2023/03/15 04:45:30;;;;;;;0.00;0.00;;;5.00;99.90;;;;;;4974225;28;20034;-76
2023/03/15 04:47:56;;;;;;;0.00;0.00;;;5.00;99.90;;;;;;4991252;28;20093;-76
2023/03/15 04:50:24;;;;;;;0.00;0.00;;;5.00;99.90;;;;;;4979296;28;20018;-75
2023/03/15 04:52:52;;;;;;;0.00;0.00;;;5.00;99.90;;;;;;4989094;28;20502;-75
2023/03/15 04:55:24;;;;;;;0.00;0.00;;;4.80;99.90;;;;;;4969769;28;20033;-76
2023/03/15 04:57:50;;;;;;;0.00;0.00;;;4.80;99.90;;;;;;4975209;28;20026;-76
2023/03/15 05:00:16;;;;;;;0.00;0.00;;;4.80;99.90;;;;;;4987862;28;20045;-75
2023/03/15 05:02:53;;;;;;;0.00;0.00;;;4.80;99.90;;;;;;4968011;28;20026;-76
2023/03/15 05:05:22;;;;;;;0.00;0.00;;;4.90;99.90;;;;;;4996737;28;20076;-76
2023/03/15 05:07:50;;;;;;;0.00;0.00;;;5.00;99.90;;;;;;4995155;28;20036;-76
2023/03/15 05:10:18;;;;;;;0.00;0.00;;;5.00;99.90;;;;;;4992155;28;20014;-76
2023/03/15 05:12:45;;;;;;;0.00;0.00;;;4.90;99.90;;;;;;4997468;28;20053;-75
2023/03/15 05:15:15;;;;;;;;;;;4.90;99.90;;;;;;4976980;28;20017;-77
2023/03/15 05:17:47;;;;;;;0.00;0.00;;;4.80;99.90;;;;;;4988695;28;19905;-76
2023/03/15 05:20:14;;;;;;;0.00;0.00;;;4.90;99.90;;;;;;4988940;28;20018;-75
2023/03/15 05:22:41;;;;;;;0.00;0.00;;;4.90;99.90;;;;;;4989481;28;20029;-76
2023/03/15 05:25:09;;;;;;;0.00;0.00;;;4.90;99.90;;;;;;4970272;28;20062;-77
2023/03/15 05:27:38;;;;;;;0.00;0.00;;;4.90;99.90;;;;;;4977344;28;20025;-76
2023/03/15 05:30:06;;;;;;;0.00;0.00;;;4.90;99.90;;;;;;4979285;28;20168;-76
2023/03/15 05:32:34;;;;;;;0.00;0.00;;;4.90;99.90;;;;;;4984671;28;20070;-75
2023/03/15 05:35:10;;;;;;;0.00;0.00;;;4.90;99.90;;;;;;4991139;28;20092;-76
2023/03/15 05:37:37;;;;;;;0.00;0.00;;;4.90;99.90;;;;;;4993461;28;20054;-75
2023/03/15 05:40:07;;;;;;;0.00;0.00;;;4.90;99.90;;;;;;4972914;28;20018;-74
2023/03/15 05:42:34;;;;;;;0.00;0.00;;;4.90;99.90;;;;;;4994272;28;20019;-75
2023/03/15 05:44:59;;;;;;;0.00;0.00;;;4.90;99.90;;;;;;4967170;28;20045;-75
2023/03/15 05:47:25;;;;;;;0.00;0.00;;;4.90;99.90;;;;;;4969231;28;20053;-75
2023/03/15 05:49:53;;;;;;;0.00;0.00;;;4.90;99.90;;;;;;4993237;28;20019;-75
2023/03/15 05:52:25;;;;;;;0.00;0.00;;;4.90;99.90;;;;;;4992903;28;20025;-75
2023/03/15 05:54:52;;;;;;;0.00;0.00;;;4.90;99.90;;;;;;4975873;28;20034;-74
2023/03/15 05:57:21;;;;;;;0.00;0.00;;;4.90;99.90;;;;;;4993415;28;20411;-75
2023/03/15 05:59:53;;;;;;;0.00;0.00;;;4.90;99.90;;;;;;4989915;28;20055;-74
2023/03/15 06:02:21;;;;;;;0.00;0.00;;;4.90;99.90;;;;;;4992418;28;20108;-75
2023/03/15 06:04:56;;;;;;;0.00;0.00;;;4.80;99.90;;;;;;4974420;28;20128;-75
2023/03/15 06:07:26;;;;;;;0.00;0.00;;;4.80;99.90;;;;;;4975791;28;20022;-77
2023/03/15 06:09:54;;;;;;;0.00;0.00;;;4.90;99.90;;;;;;4988123;28;20521;-77
2023/03/15 06:12:22;;;;;;;0.00;0.00;;;5.00;99.90;;;;;;4990607;28;20028;-75
2023/03/15 06:14:55;;;;;;;0.00;0.00;;;5.00;99.90;;;;;;4989919;28;20025;-75
2023/03/15 06:17:23;;;;;;;0.00;0.00;;;5.00;99.90;;;;;;4966310;28;20498;-75
2023/03/15 06:19:51;;;;;;;0.00;0.00;;;5.00;99.90;;;;;;4971468;28;20022;-75
2023/03/15 06:22:23;;;;;;;0.00;0.00;;;5.00;99.90;;;;;;4972281;28;20030;-76
2023/03/15 06:24:49;;;;;;;0.00;0.00;;;5.10;99.90;;;;;;4970378;28;20022;-75
2023/03/15 06:27:20;;;;;;;0.00;0.00;;;5.10;99.90;;;;;;4973079;28;20109;-75
2023/03/15 06:29:49;;;;;;;0.00;0.00;;;5.10;99.90;;;;;;4972101;28;20030;-76
2023/03/15 06:32:16;;;;;;;0.00;0.00;;;5.20;99.60;;;;;;4993458;28;20018;-76
2023/03/15 06:34:41;;;;;;;;;;;5.40;99.10;;;;;;4979480;28;20058;-75
2023/03/15 06:37:07;;;;;;;0.00;0.00;;;5.60;98.80;;;;;;4972734;28;19937;-75
2023/03/15 06:39:34;;;;;;;0.00;0.00;;;5.80;98.40;;;;;;4979310;28;20026;-75
2023/03/15 06:42:01;;;;;;;0.00;0.00;;;6.10;97.40;;;;;;4977242;28;20030;-75
2023/03/15 06:44:27;;;;;;;0.00;0.00;;;6.00;96.50;;;;;;4992275;28;20052;-75
2023/03/15 06:46:54;;;;;;;0.00;0.00;;;6.30;95.90;;;;;;4986794;28;20030;-75
2023/03/15 06:49:20;;;;;;;;;;;6.70;95.20;;;;;;4988929;28;20026;-74
2023/03/15 06:51:45;;;;;;;0.00;0.00;;;6.90;94.30;;;;;;4993023;28;19956;-75
2023/03/15 06:54:19;;;;;;;0.00;0.00;;;7.10;93.40;;;;;;4993165;28;20072;-75
2023/03/15 06:56:45;;;;;;;0.00;0.00;;;6.90;92.50;;;;;;4972420;28;20486;-75
2023/03/15 06:59:17;;;;;;;0.00;0.00;;;6.90;92.70;;;;;;4987222;28;20132;-75
2023/03/15 07:01:47;;;;;;;0.00;0.00;;;6.90;92.20;;;;;;4990888;28;20113;-76
2023/03/15 07:04:13;;;;;;;0.00;0.00;;;6.90;92.30;;;;;;4998607;28;20018;-75
2023/03/15 07:06:39;;;;;;;;;;;7.00;92.10;;;;;;5001500;28;20423;-75
2023/03/15 07:09:05;;;;;;;0.00;0.00;;;7.00;91.50;;;;;;4994450;28;19945;-75
2023/03/15 07:11:31;;;;;;;0.00;0.00;;;7.20;91.10;;;;;;4991154;28;20366;-75
2023/03/15 07:13:58;;;;;;;0.00;0.00;;;7.20;90.60;;;;;;4972302;28;20468;-75
2023/03/15 07:16:24;;;;;;;0.00;0.00;;;7.40;89.80;;;;;;4974862;28;20120;-74
2023/03/15 07:19:03;;;;;;;0.00;0.00;;;7.30;90.30;;;;;;4995041;28;20029;-74
2023/03/15 07:21:30;;;;;;;0.00;0.00;;;7.20;89.10;;;;;;4993043;28;20562;-75
2023/03/15 07:23:57;;;;;;;;;;;7.40;90.00;;;;;;4975946;28;20471;-75
2023/03/15 07:26:26;;;;;;;0.00;0.00;;;7.60;88.50;;;;;;4970475;28;20299;-75
2023/03/15 07:28:52;;;;;;;0.00;0.00;;;7.70;86.80;;;;;;4981980;28;20018;-75
2023/03/15 07:31:18;;;;;;;0.00;0.00;;;7.90;86.30;;;;;;4975308;28;20018;-74
2023/03/15 07:33:54;;;;;;;;;;;8.00;85.20;;;;;;4974406;28;20153;-74
2023/03/15 07:36:22;;;;;;;0.00;0.00;;;8.00;83.40;;;;;;4996126;28;19936;-75
2023/03/15 07:38:49;;;;;;;0.00;0.00;;;7.60;84.90;;;;;;4977660;28;20037;-75
2023/03/15 07:41:15;;;;;;;0.00;0.00;;;7.70;84.50;;;;;;4969772;28;20049;-74
2023/03/15 07:43:46;;;;;;;0.00;0.00;;;7.50;83.90;;;;;;4973460;28;20472;-75
2023/03/15 07:46:14;;;;;;;0.00;0.00;;;7.50;84.70;;;;;;4991101;28;20026;-74
2023/03/15 07:48:42;;;;;;;0.00;0.00;;;7.90;83.30;;;;;;4985196;28;20049;-74
2023/03/15 07:51:08;;;;;;;0.00;0.00;;;8.10;82.40;;;;;;4979345;28;20010;-75
2023/03/15 07:53:35;;;;;;;0.00;0.00;;;8.40;81.60;;;;;;4991250;28;20018;-75
2023/03/15 07:56:01;;;;;;;0.00;0.00;;;8.60;81.00;;;;;;4977726;28;20076;-76
2023/03/15 07:58:31;;;;;;;0.00;0.00;;;8.90;79.80;;;;;;4976306;28;20081;-75
2023/03/15 08:00:58;;;;;;;0.00;0.00;;;9.00;78.00;;;;;;4968852;28;20113;-75
2023/03/15 08:03:26;;;;;;;0.00;0.00;;;9.30;77.60;;;;;;4998037;28;20028;-76
2023/03/15 08:05:52;;;;;;;0.00;0.00;;;10.10;76.00;;;;;;4977375;28;20026;-75
2023/03/15 08:08:20;;;;;;;0.00;0.00;;;10.90;72.60;;;;;;4998789;28;20574;-75
2023/03/15 08:10:50;;;;;;;0.00;0.00;;;12.00;69.00;;;;;;4976905;28;20037;-75
2023/03/15 08:13:23;;;;;;;0.00;0.00;;;13.10;65.00;;;;;;4974279;28;20375;-76
2023/03/15 08:15:58;;;;;;;0.00;0.00;;;14.10;60.70;;;;;;4995211;28;20053;-75
2023/03/15 08:18:24;;;;;;;0.00;0.00;;;15.60;57.10;;;;;;4972177;28;20025;-75
2023/03/15 08:20:50;;;;;;;0.00;0.00;;;16.10;54.30;;;;;;4994542;28;20022;-75
2023/03/15 08:23:20;;;;;;;0.00;0.00;;;17.40;51.60;;;;;;4977274;28;20034;-76
2023/03/15 08:25:48;;;;;;;0.00;0.00;;;17.90;50.20;;;;;;4992439;28;20033;-76
2023/03/15 08:28:16;;;;;;;0.05;0.05;;;18.70;47.60;;;;;;4997193;28;20415;-75
2023/03/15 08:30:43;;;;;;;0.00;0.00;;;20.00;46.30;;;;;;4990477;28;20026;-75
2023/03/15 08:33:11;;;;;;;0.00;0.00;;;21.40;43.20;;;;;;4991389;28;20113;-75
2023/03/15 08:35:41;;;;;;;0.00;0.00;;;21.10;42.50;;;;;;4970207;28;20033;-75
2023/03/15 08:38:08;;;;;;;0.00;0.00;;;21.20;41.90;;;;;;4985269;28;20406;-75
2023/03/15 08:40:35;;;;;;;0.00;0.00;;;20.70;41.30;;;;;;4970968;28;20077;-75
2023/03/15 08:43:06;;;;;;;0.00;0.00;;;19.40;42.30;;;;;;4992365;28;20046;-75
2023/03/15 08:45:33;;;;;;;0.00;0.00;;;19.90;42.70;;;;;;4980155;28;20106;-75
2023/03/15 08:48:01;;;;;;;0.00;0.00;;;20.70;42.20;;;;;;4973372;28;20468;-76
2023/03/15 08:50:28;;;;;;;0.00;0.00;;;20.60;41.20;;;;;;4976420;28;20022;-74
2023/03/15 08:52:57;;;;;;;0.00;0.00;;;21.60;40.10;;;;;;4991190;28;20050;-75
2023/03/15 08:55:23;;;;;;;0.00;0.00;;;21.30;39.40;;;;;;4975392;28;20018;-75
2023/03/15 08:57:49;;;;;;;0.00;0.00;;;21.00;39.30;;;;;;4997028;28;20029;-76
2023/03/15 09:00:21;;;;;;;0.10;0.10;;;20.80;40.00;;;;;;4987462;28;20025;-75
2023/03/15 09:02:54;;;;;;;0.00;0.00;;;20.20;39.80;;;;;;4975143;28;20602;-76
2023/03/15 09:05:22;;;;;;;0.00;0.00;;;18.90;39.90;;;;;;4973685;28;20109;-75
2023/03/15 09:07:51;;;;;;;0.00;0.00;;;20.40;40.40;;;;;;4993534;28;20475;-75
2023/03/15 09:10:18;;;;;;;0.00;0.00;;;20.40;40.10;;;;;;4976778;28;20029;-76
2023/03/15 09:12:46;;;;;;;0.00;0.00;;;21.20;40.20;;;;;;4967370;28;20056;-75
2023/03/15 09:15:13;;;;;;;0.00;0.00;;;20.80;40.20;;;;;;4970436;28;20053;-75
2023/03/15 09:17:39;;;;;;;0.00;0.00;;;21.10;40.40;;;;;;4992798;28;20485;-75
2023/03/15 09:20:13;;;;;;;0.00;0.00;;;21.90;39.60;;;;;;4970527;28;20033;-75
2023/03/15 09:22:41;;;;;;;0.00;0.00;;;20.10;39.40;;;;;;4984125;28;20424;-75
2023/03/15 09:25:08;;;;;;;0.00;0.00;;;21.20;39.70;;;;;;4966274;28;20037;-75
2023/03/15 09:27:36;;;;;;;0.00;0.00;;;22.40;38.80;;;;;;4994622;28;20045;-75
2023/03/15 09:30:03;;;;;;;0.00;0.00;;;23.20;37.60;;;;;;4965570;28;20185;-75
2023/03/15 09:32:35;;;;;;;0.00;0.00;;;23.20;37.10;;;;;;4988281;28;21046;-76
2023/03/15 09:35:06;;;;;;;0.00;0.00;;;22.40;38.00;;;;;;4976406;28;20084;-75
2023/03/15 09:37:34;;;;;;;0.00;0.00;;;23.60;37.30;;;;;;4994841;28;20084;-75
2023/03/15 09:40:01;;;;;;;0.00;0.00;;;23.00;37.20;;;;;;4975193;28;20030;-75
2023/03/15 09:43:13;;;;;;;0.00;0.00;;;22.50;37.80;;;;;;4990864;28;20021;-75
2023/03/15 09:45:53;;;;;;;0.00;0.00;;;22.60;37.80;;;;;;4984086;28;20041;-77
2023/03/15 09:48:59;;;;;;;0.00;0.00;;;24.20;37.20;;;;;;4989561;28;20018;-76
2023/03/15 09:51:40;;;;;;;0.00;0.00;;;24.60;36.20;;;;;;4966550;28;20077;-76
2023/03/15 09:54:31;;;;;;;0.00;0.00;;;24.50;35.40;;;;;;4973635;28;20022;-76
2023/03/15 09:57:21;;;;;;;0.00;0.00;;;24.60;35.70;;;;;;4966699;28;20030;-76
2023/03/15 09:59:52;;;;;;;0.00;0.00;;;24.80;35.10;;;;;;4968356;28;20026;-76
2023/03/15 10:02:28;;;;;;;0.00;0.00;;;22.90;35.30;;;;;;4982091;28;20180;-75
2023/03/15 10:05:04;;;;;;;0.00;0.00;;;23.50;36.00;;;;;;4970521;28;20042;-76
2023/03/15 10:07:34;;;;;;;0.00;0.00;;;23.30;35.70;;;;;;4975461;28;21405;-76
2023/03/15 10:10:16;;;;;;;0.00;0.00;;;24.10;35.50;;;;;;4995737;28;20227;-76
2023/03/15 10:12:50;;;;;;;0.00;0.00;;;24.10;34.90;;;;;;4983332;28;20029;-76
2023/03/15 10:15:22;;;;;;;0.00;0.00;;;24.30;34.80;;;;;;4980486;28;20101;-77
2023/03/15 10:17:58;;;;;;;0.00;0.00;;;25.00;34.60;;;;;;4993245;28;20021;-75
2023/03/15 10:20:33;;;;;;;0.00;0.00;;;22.30;36.50;;;;;;4990632;28;20022;-76
2023/03/15 10:23:38;;;;;;;0.00;0.00;;;23.70;36.20;;;;;;4992941;28;20069;-76
2023/03/15 10:26:11;;;;;;;0.00;0.00;;;23.50;35.10;;;;;;4988410;28;20557;-76
2023/03/15 10:28:38;;;;;;;0.00;0.00;;;23.60;35.20;;;;;;4993933;28;20014;-76
2023/03/15 10:31:15;;;;;;;0.00;0.00;;;24.60;34.90;;;;;;4974905;28;20025;-76
2023/03/15 10:33:42;;;;;;;;;;;24.20;34.40;;;;;;4965935;28;20025;-76
2023/03/15 10:36:28;;;;;;;0.00;0.00;;;23.90;34.60;;;;;;4976687;28;19922;-76
2023/03/15 10:39:05;;;;;;;0.00;0.00;;;22.50;35.90;;;;;;4996346;28;20511;-76
2023/03/15 10:41:50;;;;;;;0.00;0.00;;;24.00;35.30;;;;;;4991268;28;20042;-76
2023/03/15 10:44:35;;;;;;;0.00;0.00;;;21.90;35.80;;;;;;4974601;28;20084;-76
2023/03/15 10:47:10;;;;;;;0.00;0.00;;;22.00;36.40;;;;;;4969562;28;20038;-76
2023/03/15 10:49:40;;;;;;;0.00;0.00;;;21.90;36.30;;;;;;4993528;28;20025;-75
2023/03/15 10:52:34;;;;;;;0.00;0.00;;;21.00;36.10;;;;;;4993853;28;20037;-76
2023/03/15 10:55:45;;;;;;;0.00;0.00;;;20.20;37.20;;;;;;4969217;28;20022;-77
2023/03/15 10:58:16;;;;;;;0.00;0.00;;;18.70;38.50;;;;;;4980180;28;20041;-77
2023/03/15 11:00:52;;;;;;;0.00;0.00;;;18.40;39.60;;;;;;4983678;28;20026;-76
2023/03/15 11:03:25;;;;;;;0.00;0.00;;;19.00;38.80;;;;;;4983551;28;20022;-76
2023/03/15 11:05:59;;;;;;;0.00;0.00;;;20.00;38.30;;;;;;4966874;28;20152;-77
2023/03/15 11:08:46;;;;;;;0.00;0.00;;;19.70;37.30;;;;;;4975396;28;20040;-77
2023/03/15 11:11:13;;;;;;;0.00;0.00;;;18.30;38.00;;;;;;4964693;28;20049;-75
2023/03/15 11:13:40;;;;;;;0.00;0.00;;;17.30;38.80;;;;;;4985587;28;20029;-76
2023/03/15 11:16:12;;;;;;;0.00;0.00;;;16.50;39.70;;;;;;4998851;28;20029;-76
2023/03/15 11:18:52;;;;;;;0.00;0.00;;;16.40;40.90;;;;;;4959048;28;20109;-76
2023/03/15 11:21:32;;;;;;;0.00;0.00;;;16.50;41.00;;;;;;4967374;28;20023;-76
2023/03/15 11:24:02;;;;;;;0.00;0.00;;;16.50;40.80;;;;;;4974898;28;20612;-76
2023/03/15 11:26:34;;;;;;;0.00;0.00;;;16.30;41.30;;;;;;4986294;28;20908;-76
2023/03/15 11:29:10;;;;;;;0.00;0.00;;;16.00;41.60;;;;;;4978610;28;20026;-75
2023/03/15 11:31:39;;;;;;;0.00;0.00;;;15.60;42.20;;;;;;4969430;28;20044;-75
2023/03/15 11:34:26;;;;;;;0.00;0.00;;;15.40;42.30;;;;;;4992896;28;20053;-76
2023/03/15 11:37:04;;;;;;;0.05;0.05;;;15.10;42.00;;;;;;4992218;28;20074;-76
2023/03/15 11:39:48;;;;;;;0.00;0.00;;;15.00;42.30;;;;;;4991942;28;20030;-76
2023/03/15 11:42:38;;;;;;;0.00;0.00;;;15.30;42.20;;;;;;4970816;28;20037;-76
2023/03/15 11:45:30;;;;;;;0.00;0.00;;;15.10;41.90;;;;;;4972739;28;20057;-76
2023/03/15 11:48:02;;;;;;;0.00;0.00;;;14.50;42.20;;;;;;4958090;28;20076;-76
2023/03/15 11:50:32;;;;;;;0.00;0.00;;;13.90;43.00;;;;;;4977467;28;20026;-76
2023/03/15 11:53:05;;;;;;;0.00;0.00;;;14.00;43.60;;;;;;4976975;28;20085;-76
2023/03/15 11:55:33;;;;;;;0.00;0.00;;;13.70;43.90;;;;;;4992662;28;20118;-76
2023/03/15 11:58:26;;;;;;;0.00;0.00;;;13.20;44.00;;;;;;4998820;28;20535;-76
2023/03/15 12:01:04;;;;;;;0.00;0.00;;;12.90;45.10;;;;;;4972426;28;20787;-76
2023/03/15 12:03:37;;;;;;;0.00;0.00;;;12.90;45.50;;;;;;4976919;28;20080;-76
2023/03/15 12:06:35;;;;;;;0.00;0.00;;;12.70;45.50;;;;;;4974163;28;20026;-76
2023/03/15 12:09:31;;;;;;;0.00;0.00;;;12.80;45.60;;;;;;4979067;28;20077;-76
2023/03/15 12:12:23;;;;;;;0.00;0.00;;;12.80;45.60;;;;;;4961040;28;20030;-76
2023/03/15 12:15:23;;;;;;;0.00;0.00;;;12.90;45.50;;;;;;4961657;28;20029;-76
2023/03/15 12:17:50;;;;;;;0.00;0.00;;;13.30;45.50;;;;;;4970717;28;20018;-76
2023/03/15 12:20:17;;;;;;;0.00;0.00;;;13.60;45.20;;;;;;4990624;28;20021;-76
2023/03/15 12:22:49;;;;;;;;;;;13.70;44.80;;;;;;4965481;28;20029;-76
2023/03/15 12:25:43;;;;;;;0.00;0.00;;;13.70;44.90;;;;;;4975447;28;20409;-76
2023/03/15 12:28:18;;;;;;;0.00;0.00;;;13.30;44.90;;;;;;4987303;28;20032;-76
2023/03/15 12:30:50;;;;;;;0.00;0.00;;;13.10;45.50;;;;;;4993567;28;20349;-75
2023/03/15 12:33:18;;;;;;;0.00;0.00;;;13.20;45.50;;;;;;4995169;28;20018;-75
2023/03/15 12:35:45;;;;;;;0.00;0.00;;;13.30;45.20;;;;;;4974068;28;20117;-75
2023/03/15 12:38:21;;;;;;;0.00;0.00;;;13.60;44.60;;;;;;4972124;28;20380;-75
2023/03/15 12:41:08;;;;;;;0.00;0.00;;;13.50;43.80;;;;;;4986159;28;20032;-75
2023/03/15 12:43:44;;;;;;;0.00;0.00;;;13.70;43.90;;;;;;4974914;28;20029;-75
2023/03/15 12:46:37;;;;;;;0.00;0.00;;;13.90;43.20;;;;;;4967921;28;20052;-75
2023/03/15 12:49:06;;;;;;;0.00;0.00;;;13.80;43.60;;;;;;4978275;28;20071;-75
2023/03/15 12:52:04;;;;;;;0.00;0.00;;;13.90;44.00;;;;;;4990464;28;20025;-75
2023/03/15 12:54:41;;;;;;;0.00;0.00;;;13.60;43.60;;;;;;4989081;28;20038;-75
2023/03/15 12:57:22;;;;;;;0.00;0.00;;;13.60;43.90;;;;;;4985636;28;20033;-75
2023/03/15 12:59:57;;;;;;;0.00;0.00;;;13.30;44.20;;;;;;4986669;28;20025;-75
2023/03/15 13:02:34;;;;;;;0.00;0.00;;;13.20;43.80;;;;;;4988556;28;20030;-75
2023/03/15 13:05:18;;;;;;;0.00;0.00;;;13.10;43.90;;;;;;4988186;28;20037;-76
2023/03/15 13:07:57;;;;;;;0.00;0.00;;;13.10;43.80;;;;;;4994146;28;20069;-75
2023/03/15 13:10:29;;;;;;;0.05;0.05;;;13.10;44.20;;;;;;4994585;28;20045;-76
2023/03/15 13:13:19;;;;;;;0.00;0.00;;;13.00;44.00;;;;;;4975536;28;20074;-75
2023/03/15 13:16:07;;;;;;;0.00;0.00;;;12.90;44.40;;;;;;4989233;28;20479;-76
2023/03/15 13:19:04;;;;;;;0.00;0.00;;;12.80;44.30;;;;;;4987969;28;20495;-75